Latest Coastal Weather Observations for Sunshine Coast Airport

IDQ60701

Issued at 8:42 am EST Wednesday 12 August 2020 (issued every 10 minutes, with the page automatically refreshed every 10 minutes)

About coastal observations | Map of coastal stations | Coastal observations for QLD | Marine services | Other Formats
Station Details ID: 040861 Name: SUNSHINE COAST AIRPORT Lat: -26.60 Lon: 153.09 Height: 3.42 m
Data from the previous 72 hours. | See also: Recent months at Sunshine Coast Airport
Date/Time
EST
Wind Sea
Height
m
Swell Vis
km
Cloud Weather Temp
°C
Press
hPa
Rain since
9am
mm
Dir  Spd
kts
Gust
kts
Height
m
Period
s
Dir
12/08:30am WSW 3 4 - - - - 10 Partly cloudy - 15.4 1020.4 0.0
12/08:00am WNW 4 5 - - - - 10 Partly cloudy - 13.8 1020.3 0.0
12/07:30am WNW 1 3 - - - - 10 Partly cloudy - 12.6 1019.9 0.0
12/07:00am W 3 5 - - - - 10 Partly cloudy - 12.0 1019.8 0.0
12/06:30am WNW 3 4 - - - - 10 Partly cloudy - 11.0 1019.5 0.0
12/06:00am WNW 5 6 - - - - 10 Mostly clear - 10.1 1018.8 0.0
12/05:30am WNW 4 4 - - - - 10 - - 10.3 1018.7 0.0
12/05:00am WNW 3 4 - - - - 10 - - 10.3 1018.6 0.0
12/04:30am WNW 4 6 - - - - 10 Partly cloudy - 11.1 1018.5 0.0
12/04:00am WNW 4 5 - - - - 10 - - 10.6 1018.2 0.0
12/03:30am WNW 3 4 - - - - 10 - - 10.6 1018.5 0.0
12/03:00am WNW 5 5 - - - - 10 Partly cloudy - 11.4 1018.6 0.0
12/02:30am WNW 6 7 - - - - 10 Partly cloudy - 11.0 1018.4 0.0
12/02:00am WNW 5 6 - - - - 10 - - 11.2 1018.3 0.0
12/01:30am WSW 4 7 - - - - 10 Partly cloudy - 12.1 1018.7 0.0
12/01:00am W 4 5 - - - - 10 Partly cloudy - 11.3 1018.7 0.0
12/12:30am W 3 4 - - - - 10 - - 11.8 1018.7 0.0
12/12:00am WSW 4 5 - - - - 10 Partly cloudy - 12.5 1018.9 0.0
 
Date/Time
EST
Wind Sea
Height
m
Swell Vis
km
Cloud Weather Temp
°C
Press
hPa
Rain since
9am
mm
Dir  Spd
kts
Gust
kts
Height
m
Period
s
Dir
11/11:30pm WSW 3 4 - - - - 10 Partly cloudy - 12.8 1018.6 0.0
11/11:00pm WNW 5 6 - - - - 10 Partly cloudy - 12.5 1018.8 0.0
11/10:30pm WNW 4 5 - - - - 10 Partly cloudy - 12.9 1019.1 0.0
11/10:00pm SW 3 4 - - - - 10 Partly cloudy - 13.6 1019.0 0.0
11/09:30pm WNW 5 6 - - - - 10 Partly cloudy - 12.9 1019.2 0.0
11/09:00pm W 3 6 - - - - 10 Partly cloudy - 13.8 1018.8 0.0
11/08:30pm WSW 5 9 - - - - 10 Partly cloudy - 14.3 1018.8 0.0
11/08:00pm SSW 3 5 - - - - 10 Partly cloudy - 15.3 1018.6 0.0
11/07:30pm SE 7 12 - - - - 10 Partly cloudy - 18.8 1018.4 0.0
11/07:00pm SE 8 13 - - - - 10 - - 18.6 1018.1 0.0
11/06:30pm SSE 3 4 - - - - 10 - - 15.8 1017.8 0.0
11/06:00pm S 4 5 - - - - 10 - - 17.3 1017.4 0.0
11/05:30pm SSE 5 6 - - - - 10 - - 17.8 1017.2 0.0
11/05:00pm SSE 7 10 - - - - 10 - - 18.7 1016.9 0.0
11/04:30pm SE 8 11 - - - - 10 - - 19.3 1016.8 0.0
11/04:00pm SSE 8 10 - - - - 10 - - 19.6 1016.7 0.0
11/03:30pm SSE 10 12 - - - - 10 - - 19.5 1016.5 0.0
11/03:00pm SE 10 13 - - - - 10 - - 20.2 1016.6 0.0
11/02:30pm SSE 11 15 - - - - 10 - - 19.9 1016.7 0.0
11/02:00pm SSE 12 15 - - - - 10 - - 19.9 1017.1 0.0
11/01:30pm SSE 13 16 - - - - 10 - - 19.9 1016.9 0.0
11/01:00pm SSE 11 16 - - - - 10 - - 19.6 1017.1 0.0
11/12:30pm SSE 13 18 - - - - 10 - - 19.8 1017.6 0.0
11/12:00pm SE 13 17 - - - - 10 - - 19.7 1018.0 0.0
11/11:30am SSE 15 20 - - - - 10 - - 19.3 1018.4 0.0
11/11:00am S 11 15 - - - - 10 - - 19.8 1018.5 0.0
11/10:30am S 8 13 - - - - 10 - - 18.8 1018.7 0.0
11/10:00am SSW 10 14 - - - - 10 - - 18.3 1018.9 0.0
11/09:30am SSW 12 14 - - - - 10 - - 18.0 1018.8 0.0
11/09:00am SSW 10 16 - - - - 10 - - 17.4 1018.5 0.0
11/08:30am SW 8 11 - - - - 10 - - 16.3 1018.4 0.0
11/08:00am WSW 7 9 - - - - 10 - - 14.7 1018.2 0.0
11/07:30am W 6 8 - - - - 10 - - 12.7 1018.0 0.0
11/07:00am WSW 5 6 - - - - 10 - - 10.1 1017.4 0.0
11/06:30am W 5 6 - - - - 10 - - 7.6 1017.1 0.0
11/06:00am WNW 5 6 - - - - 10 - - 7.6 1016.8 0.0
11/05:30am WNW 5 6 - - - - 10 - - 7.8 1016.4 0.0
11/05:00am WNW 6 7 - - - - 10 - - 8.2 1016.0 0.0
11/04:30am WNW 5 6 - - - - 10 - - 8.9 1015.6 0.0
11/04:00am NW 8 10 - - - - 10 - - 9.4 1015.5 0.0
11/03:30am W 7 8 - - - - 10 - - 9.7 1015.3 0.0
11/03:00am WSW 8 10 - - - - 10 - - 11.4 1015.1 0.0
11/02:30am WSW 9 10 - - - - 10 - - 11.8 1015.1 0.0
11/02:00am WSW 10 12 - - - - 10 - - 12.3 1015.2 0.0
11/01:30am WSW 11 13 - - - - 10 - - 12.5 1015.4 0.0
11/01:00am WSW 11 14 - - - - 10 - - 12.7 1015.6 0.0
11/12:30am WSW 9 12 - - - - 10 - - 12.7 1015.8 0.0
11/12:00am WSW 11 13 - - - - 10 - - 12.7 1015.8 0.0
 
Date/Time
EST
Wind Sea
Height
m
Swell Vis
km
Cloud Weather Temp
°C
Press
hPa
Rain since
9am
mm
Dir  Spd
kts
Gust
kts
Height
m
Period
s
Dir
10/11:30pm WSW 10 12 - - - - 10 - - 12.2 1015.8 0.0
10/11:00pm W 9 10 - - - - 10 - - 12.0 1015.8 0.0
10/10:30pm W 8 11 - - - - 10 - - 12.0 1015.8 0.0
10/10:00pm W 8 9 - - - - 10 - - 11.9 1015.5 0.0
10/09:30pm W 9 13 - - - - 10 - - 12.6 1015.4 0.0
10/09:00pm W 7 9 - - - - 10 - - 12.3 1015.5 0.0
10/08:30pm W 5 7 - - - - 10 - - 12.0 1015.3 0.0
10/08:00pm W 8 11 - - - - 10 - - 13.2 1015.0 0.0
10/07:30pm WSW 10 13 - - - - 10 - - 13.4 1014.8 0.0
10/07:00pm W 13 17 - - - - 10 - - 14.1 1014.6 0.0
10/06:30pm WSW 13 18 - - - - 10 - - 14.7 1014.0 0.0
10/06:00pm WSW 10 12 - - - - 10 - - 14.7 1013.6 0.0
10/05:30pm SW 10 13 - - - - 10 - - 15.7 1013.2 0.0
10/05:00pm WSW 9 14 - - - - 10 - - 16.7 1012.5 0.0
10/04:30pm W 15 20 - - - - 10 - - 17.6 1011.9 0.0
10/04:00pm W 18 23 - - - - 10 - - 18.0 1011.3 0.0
10/03:30pm WSW 16 24 - - - - 10 - - 18.4 1011.3 0.0
10/03:00pm W 19 24 - - - - 10 - - 18.6 1010.6 0.0
10/02:30pm W 17 24 - - - - 10 Partly cloudy - 18.8 1010.8 0.0
10/02:00pm WSW 13 17 - - - - 10 Partly cloudy - 18.1 1011.1 0.0
10/01:30pm WSW 17 23 - - - - 10 Partly cloudy - 18.0 1011.2 0.0
10/01:00pm WSW 17 24 - - - - 10 Partly cloudy - 18.2 1011.3 0.0
10/12:30pm WSW 15 20 - - - - 10 Partly cloudy - 18.4 1011.4 0.0
10/12:00pm WSW 14 17 - - - - 10 Partly cloudy - 17.8 1011.6 0.0
10/11:30am W 14 20 - - - - 10 Partly cloudy - 17.3 1012.3 0.0
10/11:02am W 15 25 - - - - 10 Partly cloudy - 17.5 1012.6 0.0
10/11:00am W 16 25 - - - - 10 Partly cloudy - 17.8 1012.7 0.0
10/10:53am W 15 25 - - - - 10 Partly cloudy - 16.9 1012.7 0.0
10/10:30am W 12 18 - - - - 10 Partly cloudy - 16.2 1013.1 0.0
10/10:00am WSW 13 21 - - - - 10 Partly cloudy - 15.8 1013.3 0.0
10/09:30am WNW 9 13 - - - - 10 Partly cloudy - 15.7 1013.5 0.0
10/09:00am NW 8 10 - - - - 10 Cloudy - 14.5 1013.7 0.0
10/08:30am NW 6 8 - - - - 10 - - 13.6 1013.6 0.0
10/08:00am NNW 7 10 - - - - 10 - - 12.0 1013.5 0.0
10/07:30am NW 9 10 - - - - 10 - - 9.5 1013.4 0.0
10/07:00am NW 6 11 - - - - 10 - - 7.2 1013.2 0.0
10/06:30am NNW 5 6 - - - - 10 - - 5.6 1013.0 0.0
10/06:00am NW 7 8 - - - - 10 - - 5.5 1012.9 0.0
10/05:30am NW 6 7 - - - - 10 - - 5.5 1012.8 0.0
10/05:00am NNW 7 8 - - - - 10 - - 5.9 1012.5 0.0
10/04:30am W 5 6 - - - - 10 - - 5.6 1012.4 0.0
10/04:00am SW 3 5 - - - - 10 - - 7.4 1012.3 0.0
10/03:30am NW 3 4 - - - - 10 - - 6.3 1012.1 0.0
10/03:00am WNW 5 6 - - - - 10 - - 6.4 1012.1 0.0
10/02:30am NW 6 7 - - - - 10 - - 6.8 1012.3 0.0
10/02:00am NNW 7 8 - - - - 10 - - 7.0 1012.3 0.0
10/01:30am NNW 6 7 - - - - 10 - - 7.3 1012.7 0.0
10/01:00am NW 5 6 - - - - 10 - - 7.1 1013.1 0.0
10/12:30am CALM 0 2 - - - - 10 - - 8.6 1013.5 0.0
10/12:00am SSW 1 3 - - - - 10 - - 9.9 1013.6 0.0
 
Date/Time
EST
Wind Sea
Height
m
Swell Vis
km
Cloud Weather Temp
°C
Press
hPa
Rain since
9am
mm
Dir  Spd
kts
Gust
kts
Height
m
Period
s
Dir
09/11:30pm NNW 4 6 - - - - 10 - - 9.6 1013.7 0.0
09/11:00pm NNW 7 8 - - - - 10 - - 8.7 1013.7 0.0
09/10:30pm NNW 5 5 - - - - 10 - - 10.9 1014.0 0.0
09/10:00pm NNW 6 8 - - - - 10 - - 10.4 1014.0 0.0
09/09:30pm NW 7 9 - - - - 10 - - 11.6 1013.9 0.0
09/09:00pm WNW 11 14 - - - - 10 Mostly clear - 13.9 1013.8 0.0
09/08:30pm WNW 10 12 - - - - 10 - - 14.2 1013.8 0.0
09/08:00pm W 10 12 - - - - 10 - - 14.8 1014.1 0.0
09/07:30pm W 8 9 - - - - 10 - - 14.7 1013.9 0.0
09/07:00pm W 8 9 - - - - 10 - - 14.8 1013.7 0.0
09/06:30pm WSW 9 11 - - - - 10 - - 15.1 1013.3 0.0
09/06:00pm SW 8 11 - - - - 10 Mostly cloudy - 16.2 1012.9 0.0
09/05:30pm WSW 9 10 - - - - 10 - - 16.0 1012.6 0.0
09/05:00pm SW 9 11 - - - - 10 - - 17.4 1012.2 0.0
09/04:30pm SW 11 13 - - - - 10 - - 17.8 1012.0 0.0
09/04:00pm WSW 11 15 - - - - 10 - - 18.7 1011.7 0.0
09/03:30pm SW 9 15 - - - - 10 - - 19.2 1011.4 0.0
09/03:00pm SW 10 15 - - - - 10 - - 19.6 1011.3 0.0
09/02:30pm WSW 10 15 - - - - 10 - - 19.4 1011.4 0.0
09/02:00pm WSW 12 16 - - - - 10 - - 19.3 1011.7 0.0
09/01:30pm WSW 12 17 - - - - 10 - - 18.8 1011.9 0.0
09/01:00pm WSW 9 17 - - - - 10 - - 18.6 1012.1 0.0
09/12:30pm WSW 12 16 - - - - 10 - - 18.6 1012.6 0.0
09/12:00pm WSW 14 20 - - - - 10 Mostly cloudy - 18.3 1013.0 0.0
09/11:30am SW 12 16 - - - - 10 - - 17.8 1013.5 0.0
09/11:00am SW 11 16 - - - - 10 - - 17.7 1014.1 0.0
09/10:30am SW 14 19 - - - - 10 - - 17.5 1014.5 0.0
09/10:00am WSW 14 17 - - - - 10 - - 16.7 1014.9 0.0
09/09:30am SW 10 14 - - - - 10 - - 16.2 1015.0 0.0
09/09:00am SW 6 9 - - - - 10 - - 15.3 1014.9 0.0

Other formats

Comma delimited format used in spreadsheet applications
http://www.bom.gov.au/fwo/IDQ60701/IDQ60701.94569.axf

JavaScript Object Notation format (JSON) in row-major order
http://www.bom.gov.au/fwo/IDQ60701/IDQ60701.94569.json

Data quality

Most of these data are generated automatically and are frequently updated. Quality checks on data are not normally performed. It is possible for incorrect values to appear. Refer to information at About Latest Weather Observations and please check the disclaimer before using these data.